Terminal Aerodrome Forecast
Issued by NWS

Home | Current Version | Previous Version | Text Only | Print | Product List | Glossary On
Versions: 1 2 3 4 5 6 7 8 9 10 11 12 13 14 15 16 17 18
000
FTUS44 KOUN 270907 AAA
TAFWWR
TAF AMD
KWWR 270907Z 2709/2806 VRB06KT P6SM FEW015
     FM271000 17013KT P6SM BKN018
     FM271400 21013G21KT P6SM SCT025
     FM280200 30006KT P6SM FEW050 BKN150
      AMD NOT SKED=

USA.gov is the U.S. government's official web portal to all federal, state and local government web resources and services.